sensor_id;sensor_type;location;lat;lon;timestamp;temperature;humidity
19813;DHT22;10066;48.108;11.448;2023-05-10T00:00:46;13.30;99.90
19813;DHT22;10066;48.108;11.448;2023-05-10T00:03:13;13.30;99.90
19813;DHT22;10066;48.108;11.448;2023-05-10T00:05:39;13.30;99.90
19813;DHT22;10066;48.108;11.448;2023-05-10T00:08:07;13.30;99.90
19813;DHT22;10066;48.108;11.448;2023-05-10T00:10:35;13.30;99.90
19813;DHT22;10066;48.108;11.448;2023-05-10T00:13:02;13.30;99.90
19813;DHT22;10066;48.108;11.448;2023-05-10T00:15:30;13.30;99.90
19813;DHT22;10066;48.108;11.448;2023-05-10T00:17:56;13.30;99.90
19813;DHT22;10066;48.108;11.448;2023-05-10T00:20:23;13.30;99.90
19813;DHT22;10066;48.108;11.448;2023-05-10T00:22:51;13.30;99.90
19813;DHT22;10066;48.108;11.448;2023-05-10T00:25:18;13.30;99.90
19813;DHT22;10066;48.108;11.448;2023-05-10T00:27:47;13.30;99.90
19813;DHT22;10066;48.108;11.448;2023-05-10T00:30:15;13.30;99.90
19813;DHT22;10066;48.108;11.448;2023-05-10T00:32:42;13.30;99.90
19813;DHT22;10066;48.108;11.448;2023-05-10T00:35:10;13.30;99.90
19813;DHT22;10066;48.108;11.448;2023-05-10T00:37:37;13.30;99.90
19813;DHT22;10066;48.108;11.448;2023-05-10T00:40:05;13.30;99.90
19813;DHT22;10066;48.108;11.448;2023-05-10T00:42:32;13.30;99.90
19813;DHT22;10066;48.108;11.448;2023-05-10T00:45:00;13.20;99.90
19813;DHT22;10066;48.108;11.448;2023-05-10T00:47:27;13.30;99.90
19813;DHT22;10066;48.108;11.448;2023-05-10T00:49:54;13.30;99.90
19813;DHT22;10066;48.108;11.448;2023-05-10T00:52:22;13.20;99.90
19813;DHT22;10066;48.108;11.448;2023-05-10T00:54:49;13.20;99.90
19813;DHT22;10066;48.108;11.448;2023-05-10T00:57:16;13.20;99.90
19813;DHT22;10066;48.108;11.448;2023-05-10T00:59:43;13.20;99.90
19813;DHT22;10066;48.108;11.448;2023-05-10T01:02:12;13.20;99.90
19813;DHT22;10066;48.108;11.448;2023-05-10T01:04:39;13.20;99.90
19813;DHT22;10066;48.108;11.448;2023-05-10T01:07:07;13.20;99.90
19813;DHT22;10066;48.108;11.448;2023-05-10T01:09:34;13.20;99.90
19813;DHT22;10066;48.108;11.448;2023-05-10T01:12:01;13.20;99.90
19813;DHT22;10066;48.108;11.448;2023-05-10T01:14:30;13.20;99.90
19813;DHT22;10066;48.108;11.448;2023-05-10T01:16:57;13.20;99.90
19813;DHT22;10066;48.108;11.448;2023-05-10T01:19:26;13.20;99.90
19813;DHT22;10066;48.108;11.448;2023-05-10T01:22:00;13.20;99.90
19813;DHT22;10066;48.108;11.448;2023-05-10T01:24:46;13.20;99.90
19813;DHT22;10066;48.108;11.448;2023-05-10T01:27:55;13.10;99.90
19813;DHT22;10066;48.108;11.448;2023-05-10T01:30:47;13.10;99.90
19813;DHT22;10066;48.108;11.448;2023-05-10T01:33:20;13.10;99.90
19813;DHT22;10066;48.108;11.448;2023-05-10T01:35:54;13.10;99.90
19813;DHT22;10066;48.108;11.448;2023-05-10T01:38:27;13.10;99.90
19813;DHT22;10066;48.108;11.448;2023-05-10T01:41:03;13.00;99.90
19813;DHT22;10066;48.108;11.448;2023-05-10T01:43:37;13.10;99.90
19813;DHT22;10066;48.108;11.448;2023-05-10T01:46:09;13.10;99.90
19813;DHT22;10066;48.108;11.448;2023-05-10T01:48:40;13.00;99.90
19813;DHT22;10066;48.108;11.448;2023-05-10T01:51:13;13.00;99.90
19813;DHT22;10066;48.108;11.448;2023-05-10T01:53:42;13.10;99.90
19813;DHT22;10066;48.108;11.448;2023-05-10T01:56:11;13.00;99.90
19813;DHT22;10066;48.108;11.448;2023-05-10T01:58:40;13.00;99.90
19813;DHT22;10066;48.108;11.448;2023-05-10T02:01:10;13.00;99.90
19813;DHT22;10066;48.108;11.448;2023-05-10T02:03:40;13.00;99.90
19813;DHT22;10066;48.108;11.448;2023-05-10T02:06:09;13.00;99.90
19813;DHT22;10066;48.108;11.448;2023-05-10T02:08:38;13.00;99.90
19813;DHT22;10066;48.108;11.448;2023-05-10T02:11:07;13.00;99.90
19813;DHT22;10066;48.108;11.448;2023-05-10T02:13:36;13.00;99.90
19813;DHT22;10066;48.108;11.448;2023-05-10T02:16:05;13.00;99.90
19813;DHT22;10066;48.108;11.448;2023-05-10T02:18:34;13.00;99.90
19813;DHT22;10066;48.108;11.448;2023-05-10T02:21:04;13.00;99.90
19813;DHT22;10066;48.108;11.448;2023-05-10T02:23:32;13.00;99.90
19813;DHT22;10066;48.108;11.448;2023-05-10T02:26:00;13.00;99.90
19813;DHT22;10066;48.108;11.448;2023-05-10T02:28:28;13.00;99.90
19813;DHT22;10066;48.108;11.448;2023-05-10T02:30:56;13.00;99.90
19813;DHT22;10066;48.108;11.448;2023-05-10T02:33:24;12.90;99.90
19813;DHT22;10066;48.108;11.448;2023-05-10T02:35:52;13.00;99.90
19813;DHT22;10066;48.108;11.448;2023-05-10T02:38:21;13.00;99.90
19813;DHT22;10066;48.108;11.448;2023-05-10T02:40:50;12.90;99.90
19813;DHT22;10066;48.108;11.448;2023-05-10T02:43:18;12.90;99.90
19813;DHT22;10066;48.108;11.448;2023-05-10T02:45:47;12.90;99.90
19813;DHT22;10066;48.108;11.448;2023-05-10T02:48:15;12.90;99.90
19813;DHT22;10066;48.108;11.448;2023-05-10T02:50:44;12.90;99.90
19813;DHT22;10066;48.108;11.448;2023-05-10T02:53:15;12.90;99.90
19813;DHT22;10066;48.108;11.448;2023-05-10T02:55:50;12.90;99.90
19813;DHT22;10066;48.108;11.448;2023-05-10T02:58:18;12.90;99.90
19813;DHT22;10066;48.108;11.448;2023-05-10T03:00:46;12.90;99.90
19813;DHT22;10066;48.108;11.448;2023-05-10T03:03:13;12.90;99.90
19813;DHT22;10066;48.108;11.448;2023-05-10T03:05:40;12.90;99.90
19813;DHT22;10066;48.108;11.448;2023-05-10T03:08:07;12.90;99.90
19813;DHT22;10066;48.108;11.448;2023-05-10T03:10:40;12.90;99.90
19813;DHT22;10066;48.108;11.448;2023-05-10T03:13:24;12.90;99.90
19813;DHT22;10066;48.108;11.448;2023-05-10T03:15:59;12.90;99.90
19813;DHT22;10066;48.108;11.448;2023-05-10T03:18:37;12.90;99.90
19813;DHT22;10066;48.108;11.448;2023-05-10T03:21:07;12.90;99.90
19813;DHT22;10066;48.108;11.448;2023-05-10T03:23:41;12.90;99.90
19813;DHT22;10066;48.108;11.448;2023-05-10T03:26:10;12.90;99.90
19813;DHT22;10066;48.108;11.448;2023-05-10T03:28:43;12.90;99.90
19813;DHT22;10066;48.108;11.448;2023-05-10T03:31:11;12.90;99.90
19813;DHT22;10066;48.108;11.448;2023-05-10T03:33:46;12.90;99.90
19813;DHT22;10066;48.108;11.448;2023-05-10T03:36:13;12.90;99.90
19813;DHT22;10066;48.108;11.448;2023-05-10T03:38:40;12.90;99.90
19813;DHT22;10066;48.108;11.448;2023-05-10T03:41:07;12.90;99.90
19813;DHT22;10066;48.108;11.448;2023-05-10T03:43:34;13.00;99.90
19813;DHT22;10066;48.108;11.448;2023-05-10T03:46:03;13.00;99.90
19813;DHT22;10066;48.108;11.448;2023-05-10T03:48:30;13.00;99.90
19813;DHT22;10066;48.108;11.448;2023-05-10T03:50:58;13.00;99.90
19813;DHT22;10066;48.108;11.448;2023-05-10T03:53:25;13.10;99.90
19813;DHT22;10066;48.108;11.448;2023-05-10T03:55:52;13.10;99.90
19813;DHT22;10066;48.108;11.448;2023-05-10T03:58:19;13.10;99.90
19813;DHT22;10066;48.108;11.448;2023-05-10T04:00:46;13.10;99.90
19813;DHT22;10066;48.108;11.448;2023-05-10T04:03:14;13.10;99.90
19813;DHT22;10066;48.108;11.448;2023-05-10T04:05:42;13.10;99.90
19813;DHT22;10066;48.108;11.448;2023-05-10T04:08:09;13.10;99.90
19813;DHT22;10066;48.108;11.448;2023-05-10T04:10:36;13.10;99.90
19813;DHT22;10066;48.108;11.448;2023-05-10T04:13:03;13.10;99.90
19813;DHT22;10066;48.108;11.448;2023-05-10T04:15:30;13.10;99.90
19813;DHT22;10066;48.108;11.448;2023-05-10T04:17:56;13.20;99.90
19813;DHT22;10066;48.108;11.448;2023-05-10T04:20:25;13.20;99.90
19813;DHT22;10066;48.108;11.448;2023-05-10T04:22:51;13.20;99.90
19813;DHT22;10066;48.108;11.448;2023-05-10T04:25:19;13.20;99.90
19813;DHT22;10066;48.108;11.448;2023-05-10T04:27:46;13.20;99.90
19813;DHT22;10066;48.108;11.448;2023-05-10T04:30:13;13.20;99.90
19813;DHT22;10066;48.108;11.448;2023-05-10T04:32:39;13.20;99.90
19813;DHT22;10066;48.108;11.448;2023-05-10T04:35:07;13.20;99.90
19813;DHT22;10066;48.108;11.448;2023-05-10T04:37:36;13.20;99.90
19813;DHT22;10066;48.108;11.448;2023-05-10T04:40:04;13.30;99.90
19813;DHT22;10066;48.108;11.448;2023-05-10T04:42:32;13.30;99.90
19813;DHT22;10066;48.108;11.448;2023-05-10T04:44:58;13.30;99.90
19813;DHT22;10066;48.108;11.448;2023-05-10T04:47:25;13.30;99.90
19813;DHT22;10066;48.108;11.448;2023-05-10T04:49:52;13.30;99.90
19813;DHT22;10066;48.108;11.448;2023-05-10T04:52:19;13.30;99.90
19813;DHT22;10066;48.108;11.448;2023-05-10T04:54:47;13.40;99.90
19813;DHT22;10066;48.108;11.448;2023-05-10T04:57:14;13.40;99.90
19813;DHT22;10066;48.108;11.448;2023-05-10T04:59:41;13.40;99.90
19813;DHT22;10066;48.108;11.448;2023-05-10T05:02:08;13.40;99.90
19813;DHT22;10066;48.108;11.448;2023-05-10T05:04:35;13.40;99.90
19813;DHT22;10066;48.108;11.448;2023-05-10T05:07:02;13.40;99.90
19813;DHT22;10066;48.108;11.448;2023-05-10T05:09:29;13.30;99.90
19813;DHT22;10066;48.108;11.448;2023-05-10T05:11:58;13.30;99.90
19813;DHT22;10066;48.108;11.448;2023-05-10T05:14:25;13.20;99.90
19813;DHT22;10066;48.108;11.448;2023-05-10T05:16:52;13.10;99.90
19813;DHT22;10066;48.108;11.448;2023-05-10T05:19:19;13.10;99.90
19813;DHT22;10066;48.108;11.448;2023-05-10T05:21:46;13.00;99.90
19813;DHT22;10066;48.108;11.448;2023-05-10T05:24:13;13.00;99.90
19813;DHT22;10066;48.108;11.448;2023-05-10T05:26:39;12.90;99.90
19813;DHT22;10066;48.108;11.448;2023-05-10T05:29:08;12.90;99.90
19813;DHT22;10066;48.108;11.448;2023-05-10T05:31:35;12.80;99.90
19813;DHT22;10066;48.108;11.448;2023-05-10T05:34:02;12.80;99.90
19813;DHT22;10066;48.108;11.448;2023-05-10T05:36:29;12.80;99.90
19813;DHT22;10066;48.108;11.448;2023-05-10T05:38:56;12.80;99.90
19813;DHT22;10066;48.108;11.448;2023-05-10T05:41:23;12.70;99.90
19813;DHT22;10066;48.108;11.448;2023-05-10T05:43:50;12.60;99.90
19813;DHT22;10066;48.108;11.448;2023-05-10T05:46:18;12.00;99.90
19813;DHT22;10066;48.108;11.448;2023-05-10T05:48:45;12.00;99.90
19813;DHT22;10066;48.108;11.448;2023-05-10T05:51:12;11.90;99.90
19813;DHT22;10066;48.108;11.448;2023-05-10T05:53:39;11.80;99.90
19813;DHT22;10066;48.108;11.448;2023-05-10T05:56:06;11.80;99.90
19813;DHT22;10066;48.108;11.448;2023-05-10T05:58:33;11.70;99.90
19813;DHT22;10066;48.108;11.448;2023-05-10T06:01:00;11.70;99.90
19813;DHT22;10066;48.108;11.448;2023-05-10T06:03:28;11.80;99.90
19813;DHT22;10066;48.108;11.448;2023-05-10T06:05:55;11.80;99.90
19813;DHT22;10066;48.108;11.448;2023-05-10T06:08:22;11.90;99.90
19813;DHT22;10066;48.108;11.448;2023-05-10T06:10:49;11.90;99.90
19813;DHT22;10066;48.108;11.448;2023-05-10T06:13:16;11.90;99.90
19813;DHT22;10066;48.108;11.448;2023-05-10T06:15:43;12.00;99.90
19813;DHT22;10066;48.108;11.448;2023-05-10T06:18:10;12.00;99.90
19813;DHT22;10066;48.108;11.448;2023-05-10T06:20:38;12.00;99.90
19813;DHT22;10066;48.108;11.448;2023-05-10T06:23:05;12.00;99.90
19813;DHT22;10066;48.108;11.448;2023-05-10T06:25:31;12.00;99.90
19813;DHT22;10066;48.108;11.448;2023-05-10T06:27:58;12.00;99.90
19813;DHT22;10066;48.108;11.448;2023-05-10T06:30:25;12.10;99.90
19813;DHT22;10066;48.108;11.448;2023-05-10T06:32:54;12.10;99.90
19813;DHT22;10066;48.108;11.448;2023-05-10T06:35:21;12.10;99.90
19813;DHT22;10066;48.108;11.448;2023-05-10T06:37:49;12.20;99.90
19813;DHT22;10066;48.108;11.448;2023-05-10T06:40:17;12.30;99.90
19813;DHT22;10066;48.108;11.448;2023-05-10T06:42:44;12.30;99.90
19813;DHT22;10066;48.108;11.448;2023-05-10T06:45:12;12.30;99.90
19813;DHT22;10066;48.108;11.448;2023-05-10T06:47:39;12.40;99.90
19813;DHT22;10066;48.108;11.448;2023-05-10T06:50:07;12.50;99.90
19813;DHT22;10066;48.108;11.448;2023-05-10T06:52:34;12.60;99.90
19813;DHT22;10066;48.108;11.448;2023-05-10T06:55:03;12.70;99.90
19813;DHT22;10066;48.108;11.448;2023-05-10T06:57:30;12.70;99.90
19813;DHT22;10066;48.108;11.448;2023-05-10T06:59:57;12.90;99.90
19813;DHT22;10066;48.108;11.448;2023-05-10T07:02:24;13.00;99.90
19813;DHT22;10066;48.108;11.448;2023-05-10T07:04:51;13.10;99.90
19813;DHT22;10066;48.108;11.448;2023-05-10T07:07:19;13.20;99.90
19813;DHT22;10066;48.108;11.448;2023-05-10T07:09:46;13.30;99.90
19813;DHT22;10066;48.108;11.448;2023-05-10T07:12:15;13.30;99.90
19813;DHT22;10066;48.108;11.448;2023-05-10T07:14:42;13.40;99.90
19813;DHT22;10066;48.108;11.448;2023-05-10T07:17:09;13.40;99.90
19813;DHT22;10066;48.108;11.448;2023-05-10T07:19:36;13.40;99.90
19813;DHT22;10066;48.108;11.448;2023-05-10T07:22:03;13.40;99.90
19813;DHT22;10066;48.108;11.448;2023-05-10T07:24:30;13.40;99.90
19813;DHT22;10066;48.108;11.448;2023-05-10T07:26:57;13.40;99.90
19813;DHT22;10066;48.108;11.448;2023-05-10T07:29:26;13.40;99.90
19813;DHT22;10066;48.108;11.448;2023-05-10T07:31:54;13.40;99.90
19813;DHT22;10066;48.108;11.448;2023-05-10T07:34:20;13.50;99.90
19813;DHT22;10066;48.108;11.448;2023-05-10T07:36:47;13.60;99.90
19813;DHT22;10066;48.108;11.448;2023-05-10T07:39:14;13.90;99.90
19813;DHT22;10066;48.108;11.448;2023-05-10T07:41:42;14.00;99.90
19813;DHT22;10066;48.108;11.448;2023-05-10T07:44:09;14.20;99.90
19813;DHT22;10066;48.108;11.448;2023-05-10T07:46:37;14.40;99.90
19813;DHT22;10066;48.108;11.448;2023-05-10T07:49:04;14.50;99.90
19813;DHT22;10066;48.108;11.448;2023-05-10T07:51:31;14.40;99.90
19813;DHT22;10066;48.108;11.448;2023-05-10T07:53:58;14.40;99.90
19813;DHT22;10066;48.108;11.448;2023-05-10T07:56:26;14.40;99.90
19813;DHT22;10066;48.108;11.448;2023-05-10T07:58:55;14.50;99.90
19813;DHT22;10066;48.108;11.448;2023-05-10T08:01:22;14.60;99.90
19813;DHT22;10066;48.108;11.448;2023-05-10T08:03:51;14.60;99.90
19813;DHT22;10066;48.108;11.448;2023-05-10T08:06:19;14.80;99.90
19813;DHT22;10066;48.108;11.448;2023-05-10T08:08:46;14.80;99.90
19813;DHT22;10066;48.108;11.448;2023-05-10T08:11:15;14.90;99.90
19813;DHT22;10066;48.108;11.448;2023-05-10T08:13:43;15.00;99.90
19813;DHT22;10066;48.108;11.448;2023-05-10T08:16:10;15.20;99.90
19813;DHT22;10066;48.108;11.448;2023-05-10T08:18:37;15.30;99.90
19813;DHT22;10066;48.108;11.448;2023-05-10T08:21:05;15.50;99.90
19813;DHT22;10066;48.108;11.448;2023-05-10T08:23:32;15.60;99.90
19813;DHT22;10066;48.108;11.448;2023-05-10T08:26:00;15.80;99.90
19813;DHT22;10066;48.108;11.448;2023-05-10T08:28:27;15.90;99.90
19813;DHT22;10066;48.108;11.448;2023-05-10T08:30:54;16.00;99.90
19813;DHT22;10066;48.108;11.448;2023-05-10T08:33:21;16.10;99.90
19813;DHT22;10066;48.108;11.448;2023-05-10T08:35:48;16.20;99.90
19813;DHT22;10066;48.108;11.448;2023-05-10T08:38:18;16.10;99.90
19813;DHT22;10066;48.108;11.448;2023-05-10T08:40:45;16.00;99.90
19813;DHT22;10066;48.108;11.448;2023-05-10T08:43:13;16.00;99.90
19813;DHT22;10066;48.108;11.448;2023-05-10T08:45:42;16.00;99.90
19813;DHT22;10066;48.108;11.448;2023-05-10T08:48:11;15.90;99.90
19813;DHT22;10066;48.108;11.448;2023-05-10T08:50:39;15.70;99.90
19813;DHT22;10066;48.108;11.448;2023-05-10T08:53:09;15.60;99.90
19813;DHT22;10066;48.108;11.448;2023-05-10T08:55:38;15.40;99.90
19813;DHT22;10066;48.108;11.448;2023-05-10T08:58:06;15.20;99.90
19813;DHT22;10066;48.108;11.448;2023-05-10T09:00:33;15.00;99.90
19813;DHT22;10066;48.108;11.448;2023-05-10T09:03:01;15.00;99.90
19813;DHT22;10066;48.108;11.448;2023-05-10T09:05:28;15.00;99.90
19813;DHT22;10066;48.108;11.448;2023-05-10T09:07:54;15.00;99.90
19813;DHT22;10066;48.108;11.448;2023-05-10T09:10:23;15.00;99.90
19813;DHT22;10066;48.108;11.448;2023-05-10T09:12:56;15.00;99.90
19813;DHT22;10066;48.108;11.448;2023-05-10T09:15:23;15.10;99.90
19813;DHT22;10066;48.108;11.448;2023-05-10T09:17:50;15.00;99.90
19813;DHT22;10066;48.108;11.448;2023-05-10T09:20:17;14.90;99.90
19813;DHT22;10066;48.108;11.448;2023-05-10T09:22:44;14.90;99.90
19813;DHT22;10066;48.108;11.448;2023-05-10T09:25:13;15.00;99.90
19813;DHT22;10066;48.108;11.448;2023-05-10T09:27:43;15.20;99.90
19813;DHT22;10066;48.108;11.448;2023-05-10T09:30:15;15.40;99.90
19813;DHT22;10066;48.108;11.448;2023-05-10T09:32:44;15.60;99.90
19813;DHT22;10066;48.108;11.448;2023-05-10T09:35:13;16.10;99.90
19813;DHT22;10066;48.108;11.448;2023-05-10T09:37:41;16.20;99.90
19813;DHT22;10066;48.108;11.448;2023-05-10T09:40:12;16.30;99.90
19813;DHT22;10066;48.108;11.448;2023-05-10T09:42:41;16.10;99.90
19813;DHT22;10066;48.108;11.448;2023-05-10T09:45:09;16.10;99.90
19813;DHT22;10066;48.108;11.448;2023-05-10T09:47:37;16.00;99.90
19813;DHT22;10066;48.108;11.448;2023-05-10T09:50:05;16.10;99.90
19813;DHT22;10066;48.108;11.448;2023-05-10T09:52:46;16.00;99.90
19813;DHT22;10066;48.108;11.448;2023-05-10T09:55:14;16.00;99.90
19813;DHT22;10066;48.108;11.448;2023-05-10T09:57:41;16.10;99.90
19813;DHT22;10066;48.108;11.448;2023-05-10T10:00:08;16.30;99.90
19813;DHT22;10066;48.108;11.448;2023-05-10T10:02:39;16.50;99.90
19813;DHT22;10066;48.108;11.448;2023-05-10T10:05:07;16.60;99.90
19813;DHT22;10066;48.108;11.448;2023-05-10T10:07:34;16.70;99.90
19813;DHT22;10066;48.108;11.448;2023-05-10T10:10:01;16.80;99.90
19813;DHT22;10066;48.108;11.448;2023-05-10T10:12:30;16.90;99.90
19813;DHT22;10066;48.108;11.448;2023-05-10T10:14:59;17.00;99.90
19813;DHT22;10066;48.108;11.448;2023-05-10T10:17:27;17.10;99.90
19813;DHT22;10066;48.108;11.448;2023-05-10T10:19:57;17.10;99.90
19813;DHT22;10066;48.108;11.448;2023-05-10T10:22:24;17.00;99.90
19813;DHT22;10066;48.108;11.448;2023-05-10T10:24:51;17.00;99.90
19813;DHT22;10066;48.108;11.448;2023-05-10T10:27:24;17.00;99.90
19813;DHT22;10066;48.108;11.448;2023-05-10T10:30:01;17.00;99.90
19813;DHT22;10066;48.108;11.448;2023-05-10T10:32:38;17.00;99.90
19813;DHT22;10066;48.108;11.448;2023-05-10T10:35:10;17.00;99.90
19813;DHT22;10066;48.108;11.448;2023-05-10T10:37:44;17.10;99.90
19813;DHT22;10066;48.108;11.448;2023-05-10T10:40:25;17.00;99.90
19813;DHT22;10066;48.108;11.448;2023-05-10T10:42:53;16.90;99.90
19813;DHT22;10066;48.108;11.448;2023-05-10T10:45:21;16.80;99.90
19813;DHT22;10066;48.108;11.448;2023-05-10T10:47:49;16.80;99.90
19813;DHT22;10066;48.108;11.448;2023-05-10T10:50:22;17.00;99.90
19813;DHT22;10066;48.108;11.448;2023-05-10T10:52:50;17.10;99.90
19813;DHT22;10066;48.108;11.448;2023-05-10T10:55:19;17.30;99.90
19813;DHT22;10066;48.108;11.448;2023-05-10T10:57:49;17.40;99.90
19813;DHT22;10066;48.108;11.448;2023-05-10T11:00:25;17.50;99.90
19813;DHT22;10066;48.108;11.448;2023-05-10T11:02:54;17.60;99.90
19813;DHT22;10066;48.108;11.448;2023-05-10T11:05:45;17.80;99.90
19813;DHT22;10066;48.108;11.448;2023-05-10T11:08:17;17.80;99.90
19813;DHT22;10066;48.108;11.448;2023-05-10T11:10:53;17.70;99.90
19813;DHT22;10066;48.108;11.448;2023-05-10T11:13:31;17.60;99.90
19813;DHT22;10066;48.108;11.448;2023-05-10T11:15:59;17.40;99.90
19813;DHT22;10066;48.108;11.448;2023-05-10T11:18:27;17.30;99.90
19813;DHT22;10066;48.108;11.448;2023-05-10T11:20:57;17.20;99.90
19813;DHT22;10066;48.108;11.448;2023-05-10T11:23:30;17.10;99.90
19813;DHT22;10066;48.108;11.448;2023-05-10T11:25:58;17.10;99.90
19813;DHT22;10066;48.108;11.448;2023-05-10T11:28:26;17.20;99.90
19813;DHT22;10066;48.108;11.448;2023-05-10T11:30:53;17.10;99.90
19813;DHT22;10066;48.108;11.448;2023-05-10T11:33:21;17.10;99.90
19813;DHT22;10066;48.108;11.448;2023-05-10T11:35:48;17.00;99.90
19813;DHT22;10066;48.108;11.448;2023-05-10T11:38:16;16.90;99.90
19813;DHT22;10066;48.108;11.448;2023-05-10T11:40:43;16.70;99.90
19813;DHT22;10066;48.108;11.448;2023-05-10T11:43:10;16.60;99.90
19813;DHT22;10066;48.108;11.448;2023-05-10T11:45:38;16.40;99.90
19813;DHT22;10066;48.108;11.448;2023-05-10T11:48:06;16.30;99.90
19813;DHT22;10066;48.108;11.448;2023-05-10T11:50:34;16.00;99.90
19813;DHT22;10066;48.108;11.448;2023-05-10T11:53:00;15.80;99.90
19813;DHT22;10066;48.108;11.448;2023-05-10T11:55:29;15.50;99.90
19813;DHT22;10066;48.108;11.448;2023-05-10T11:58:01;15.20;99.90
19813;DHT22;10066;48.108;11.448;2023-05-10T12:00:28;14.90;99.90
19813;DHT22;10066;48.108;11.448;2023-05-10T12:02:56;14.70;99.90
19813;DHT22;10066;48.108;11.448;2023-05-10T12:05:23;14.50;99.90
19813;DHT22;10066;48.108;11.448;2023-05-10T12:07:51;14.30;99.90
19813;DHT22;10066;48.108;11.448;2023-05-10T12:10:25;14.20;99.90
19813;DHT22;10066;48.108;11.448;2023-05-10T12:12:54;14.00;99.90
19813;DHT22;10066;48.108;11.448;2023-05-10T12:15:22;14.00;99.90
19813;DHT22;10066;48.108;11.448;2023-05-10T12:17:51;13.90;99.90
19813;DHT22;10066;48.108;11.448;2023-05-10T12:20:19;13.90;99.90
19813;DHT22;10066;48.108;11.448;2023-05-10T12:22:49;13.80;99.90
19813;DHT22;10066;48.108;11.448;2023-05-10T12:25:17;13.80;99.90
19813;DHT22;10066;48.108;11.448;2023-05-10T12:27:51;13.70;99.90
19813;DHT22;10066;48.108;11.448;2023-05-10T12:30:21;13.60;99.90
19813;DHT22;10066;48.108;11.448;2023-05-10T12:32:48;13.50;99.90
19813;DHT22;10066;48.108;11.448;2023-05-10T12:35:16;13.50;99.90
19813;DHT22;10066;48.108;11.448;2023-05-10T12:37:46;13.50;99.90
19813;DHT22;10066;48.108;11.448;2023-05-10T12:40:13;13.40;99.90
19813;DHT22;10066;48.108;11.448;2023-05-10T12:42:40;13.50;99.90
19813;DHT22;10066;48.108;11.448;2023-05-10T12:45:08;13.40;99.90
19813;DHT22;10066;48.108;11.448;2023-05-10T12:47:37;13.40;99.90
19813;DHT22;10066;48.108;11.448;2023-05-10T12:50:05;13.40;99.90
19813;DHT22;10066;48.108;11.448;2023-05-10T12:52:32;13.40;99.90
19813;DHT22;10066;48.108;11.448;2023-05-10T12:54:59;13.40;99.90
19813;DHT22;10066;48.108;11.448;2023-05-10T12:57:26;13.40;99.90
19813;DHT22;10066;48.108;11.448;2023-05-10T12:59:54;13.40;99.90
19813;DHT22;10066;48.108;11.448;2023-05-10T13:02:21;13.50;99.90
19813;DHT22;10066;48.108;11.448;2023-05-10T13:04:50;13.50;99.90
19813;DHT22;10066;48.108;11.448;2023-05-10T13:07:17;13.50;99.90
19813;DHT22;10066;48.108;11.448;2023-05-10T13:09:44;13.60;99.90
19813;DHT22;10066;48.108;11.448;2023-05-10T13:12:11;13.60;99.90
19813;DHT22;10066;48.108;11.448;2023-05-10T13:14:38;13.60;99.90
19813;DHT22;10066;48.108;11.448;2023-05-10T13:17:06;13.60;99.90
19813;DHT22;10066;48.108;11.448;2023-05-10T13:19:33;13.70;99.90
19813;DHT22;10066;48.108;11.448;2023-05-10T13:22:02;13.70;99.90
19813;DHT22;10066;48.108;11.448;2023-05-10T13:24:29;13.80;99.90
19813;DHT22;10066;48.108;11.448;2023-05-10T13:26:56;13.80;99.90
19813;DHT22;10066;48.108;11.448;2023-05-10T13:29:23;13.80;99.90
19813;DHT22;10066;48.108;11.448;2023-05-10T13:31:50;13.90;99.90
19813;DHT22;10066;48.108;11.448;2023-05-10T13:34:17;13.90;99.90
19813;DHT22;10066;48.108;11.448;2023-05-10T13:36:46;13.90;99.90
19813;DHT22;10066;48.108;11.448;2023-05-10T13:39:14;14.00;99.90
19813;DHT22;10066;48.108;11.448;2023-05-10T13:41:41;14.00;99.90
19813;DHT22;10066;48.108;11.448;2023-05-10T13:44:08;14.00;99.90
19813;DHT22;10066;48.108;11.448;2023-05-10T13:46:35;14.10;99.90
19813;DHT22;10066;48.108;11.448;2023-05-10T13:49:03;14.10;99.90
19813;DHT22;10066;48.108;11.448;2023-05-10T13:51:30;14.10;99.90
19813;DHT22;10066;48.108;11.448;2023-05-10T13:53:57;14.10;99.90
19813;DHT22;10066;48.108;11.448;2023-05-10T13:56:26;14.20;99.90
19813;DHT22;10066;48.108;11.448;2023-05-10T13:58:53;14.20;99.90
19813;DHT22;10066;48.108;11.448;2023-05-10T14:01:19;14.20;99.90
19813;DHT22;10066;48.108;11.448;2023-05-10T14:03:46;14.30;99.90
19813;DHT22;10066;48.108;11.448;2023-05-10T14:06:13;14.30;99.90
19813;DHT22;10066;48.108;11.448;2023-05-10T14:08:40;14.30;99.90
19813;DHT22;10066;48.108;11.448;2023-05-10T14:11:07;14.30;99.90
19813;DHT22;10066;48.108;11.448;2023-05-10T14:13:35;14.20;99.90
19813;DHT22;10066;48.108;11.448;2023-05-10T14:16:03;14.20;99.90
19813;DHT22;10066;48.108;11.448;2023-05-10T14:18:30;14.20;99.90
19813;DHT22;10066;48.108;11.448;2023-05-10T14:20:57;14.20;99.90
19813;DHT22;10066;48.108;11.448;2023-05-10T14:23:24;14.20;99.90
19813;DHT22;10066;48.108;11.448;2023-05-10T14:25:51;14.20;99.90
19813;DHT22;10066;48.108;11.448;2023-05-10T14:28:18;14.10;99.90
19813;DHT22;10066;48.108;11.448;2023-05-10T14:30:47;14.20;99.90
19813;DHT22;10066;48.108;11.448;2023-05-10T14:33:14;14.10;99.90
19813;DHT22;10066;48.108;11.448;2023-05-10T14:35:41;14.10;99.90
19813;DHT22;10066;48.108;11.448;2023-05-10T14:38:08;14.10;99.90
19813;DHT22;10066;48.108;11.448;2023-05-10T14:40:36;14.10;99.90
19813;DHT22;10066;48.108;11.448;2023-05-10T14:43:03;14.10;99.90
19813;DHT22;10066;48.108;11.448;2023-05-10T14:45:30;14.10;99.90
19813;DHT22;10066;48.108;11.448;2023-05-10T14:47:58;14.10;99.90
19813;DHT22;10066;48.108;11.448;2023-05-10T14:50:25;14.10;99.90
19813;DHT22;10066;48.108;11.448;2023-05-10T14:52:52;14.00;99.90
19813;DHT22;10066;48.108;11.448;2023-05-10T14:55:19;13.90;99.90
19813;DHT22;10066;48.108;11.448;2023-05-10T14:57:45;13.80;99.90
19813;DHT22;10066;48.108;11.448;2023-05-10T15:00:15;13.80;99.90
19813;DHT22;10066;48.108;11.448;2023-05-10T15:02:44;13.70;99.90
19813;DHT22;10066;48.108;11.448;2023-05-10T15:05:12;13.60;99.90
19813;DHT22;10066;48.108;11.448;2023-05-10T15:07:40;13.50;99.90
19813;DHT22;10066;48.108;11.448;2023-05-10T15:10:09;13.40;99.90
19813;DHT22;10066;48.108;11.448;2023-05-10T15:12:36;13.40;99.90
19813;DHT22;10066;48.108;11.448;2023-05-10T15:15:04;13.30;99.90
19813;DHT22;10066;48.108;11.448;2023-05-10T15:17:31;13.30;99.90
19813;DHT22;10066;48.108;11.448;2023-05-10T15:19:58;13.20;99.90
19813;DHT22;10066;48.108;11.448;2023-05-10T15:22:26;13.20;99.90